Stortemelk — PH2362 — position and weather

sailwx.info

Track history (hours):
 
Tides and Currents Weather Stations Pressure Air Temp Water Temp Dewpoint Dewpoint Depression Visibility Wind Speed Wind Dir Waves Ship Positions

Stortemelk

Last reported at 2017-Oct-01 08:35 UTC. Time now 2017-Nov-18 03:06 UTC.
Position N 37°52' E 023°29'.
Warning: this ship's position is 47 days out of date.

Length 14 m.

Type: Sailing vessel. MMSI: 244070421.

Date/timePositionNaut miles runAvg speedWind from/ knotsBaromVisibWave heightAir tempDewpointWater temp
2017-Oct-01 08:35N 37°52' E 023°29'1 6.6
2017-Oct-01 08:29N 37°53' E 023°30'3 6.4
2017-Oct-01 08:00N 37°54' E 023°34'4 7.4
2017-Oct-01 07:30N 37°55' E 023°38'1 2.0
2017-Oct-01 06:58N 37°56' E 023°39'  
2017-Sep-27 11:55N 37°56' E 023°39'1 3.5
2017-Sep-27 11:30N 37°55' E 023°40'2 5.0
2017-Sep-27 11:00N 37°53' E 023°41'3 5.3
2017-Sep-27 10:30N 37°50' E 023°43'3 5.1
2017-Sep-27 10:00N 37°48' E 023°45'  
2017-Sep-21 13:34N 37°25' E 025°19'0 4.7
2017-Sep-21 13:30N 37°25' E 025°19'3 6.3
2017-Sep-21 13:00N 37°22' E 025°22'4 7.2
2017-Sep-21 12:30N 37°19' E 025°24'16 4.3
2017-Sep-21 08:51N 37°11' E 025°41'  
Track history (hours):
 
Tides and Currents Weather Stations Pressure Air Temp Water Temp Dewpoint Dewpoint Depression Visibility Wind Speed Wind Dir Waves Ship Positions

Stortemelk

Last reported at 2017-Oct-01 08:35 UTC. Time now 2017-Nov-18 03:06 UTC.
Position N 37°52' E 023°29'.
Warning: this ship's position is 47 days out of date.

Length 14 m.

Type: Sailing vessel. MMSI: 244070421.

Date/timePositionNaut miles runAvg speedWind from/ knotsBaromVisibWave heightAir tempDewpointWater temp
2017-Oct-01 08:35N 37°52' E 023°29'1 6.6
2017-Oct-01 08:29N 37°53' E 023°30'3 6.4
2017-Oct-01 08:00N 37°54' E 023°34'4 7.4
2017-Oct-01 07:30N 37°55' E 023°38'1 2.0
2017-Oct-01 06:58N 37°56' E 023°39'  
2017-Sep-27 11:55N 37°56' E 023°39'1 3.5
2017-Sep-27 11:30N 37°55' E 023°40'2 5.0
2017-Sep-27 11:00N 37°53' E 023°41'3 5.3
2017-Sep-27 10:30N 37°50' E 023°43'3 5.1
2017-Sep-27 10:00N 37°48' E 023°45'  
2017-Sep-21 13:34N 37°25' E 025°19'0 4.7
2017-Sep-21 13:30N 37°25' E 025°19'3 6.3
2017-Sep-21 13:00N 37°22' E 025°22'4 7.2
2017-Sep-21 12:30N 37°19' E 025°24'16 4.3
2017-Sep-21 08:51N 37°11' E 025°41'  

Dump ship's entire track history